Terminal Aerodrome Forecast
Issued by NWS Raleigh/Durham, NC

Current Version | Previous Version | Text Only | Print | Product List | Glossary On
Versions: 1 2 3 4 5 6 7 8 9 10 11 12 13 14
000 FTUS42 KRAH 272342 CCA TAFFAY TAF COR KFAY 272342Z 2800/2824 VRB03KT P6SM BKN080 TEMPO 2800/2801 06012G25KT 4SM -TSRA BR OVC025CB FM280700 00000KT 3SM BR BKN250 TEMPO 2808/2812 1 1/2SM BR FM281500 05008KT P6SM SCT250=

USA.gov is the U.S. government's official web portal to all federal, state and local government web resources and services.